Accueil
METAR-TAF:

METAR-TAF

Aéroports :

Shawbury, Angleterre

latitude: 52-48N, longitude: 002-40W, altitude: 76 m

Observation

Le bulletin a été fait il y a 33 minutes, à 10:50 UTC
Vent 9 kt de nord/nord-ouest
Température 15°C
Humidité 72%
Pression 1017 hPa
Visibilité 10 km ou plus
Quelques nuages à une hauteur de 2000 ft
Nuages fragmentés à une hauteur de 3500 ft

METAR: EGOS 141050Z 33009KT 9999 FEW020 BKN035 15/10 Q1017 NOSIG RMK BLU BLU

Heure: 12:23 (11:23 UTC)

Prévision

Le bulletin a été fait il y a 3 heures et 33 minutes, à 07:50 UTC
Prévision valable du 14 à 09 UTC au 14 à 18 UTC
Vent 10 kt de nord-ouest
Visibilité 10 km ou plus
Quelques nuages à une hauteur de 2500 ft
Nuages fragmentés à une hauteur de 5000 ft
Probabilité 40% :
Temporairement
du 14 à 09 UTC au 14 à 11 UTC
Nuages épars à une hauteur de 2000 ft

TAF: EGOS 140750Z 1409/1418 31010KT 9999 FEW025 BKN050 PROB40 TEMPO 1409/1411 SCT020

Observations et prévisions météorologiques de plus de 4000 aéroports (messages METAR et TAF).

Les stations disponibles sont représentées par des disques jaunes et rouges sur la carte.

Passer la souris dessus pour voir le nom de la station.

Cliquer dessus pour voir les observations et prévisions météorologiques.

Pour changer de carte: cliquez sur les boutons verts avec une croix noire pour zoomer, sur le bouton vert avec un tiret pour effectuer un zoom arrière, ou sur les flèches vertes pour les cartes adjacentes.


METAR-TAF: